Time;durP1;ratioP1;P1;durP2;ratioP2;P2;SDS_P1;SDS_P2;PMS_P1;PMS_P2;Temp;Humidity;BMP_temperature;BMP_pressure;BME280_temperature;BME280_humidity;BME280_pressure;Samples;Min_cycle;Max_cycle;Signal;HPM_P1;HPM_P2
2021/12/22 00:01:30;;;;;;;4.07;3.70;;;17.30;25.50;;;;;;5117804;28;20210;-62
2021/12/22 00:03:58;;;;;;;4.65;3.58;;;17.30;25.50;;;;;;5119842;28;20480;-62
2021/12/22 00:06:29;;;;;;;3.65;3.35;;;17.30;25.60;;;;;;5119336;28;20221;-62
2021/12/22 00:08:57;;;;;;;4.00;3.70;;;17.30;25.50;;;;;;5119723;28;20214;-63
2021/12/22 00:11:25;;;;;;;3.78;3.47;;;17.30;25.60;;;;;;5119739;28;20581;-62
2021/12/22 00:13:53;;;;;;;3.67;3.38;;;17.20;25.50;;;;;;5116040;28;20234;-62
2021/12/22 00:16:20;;;;;;;3.95;3.65;;;17.20;25.60;;;;;;5116069;28;20213;-62
2021/12/22 00:18:47;;;;;;;3.80;3.40;;;17.20;25.50;;;;;;5119757;28;20207;-62
2021/12/22 00:21:15;;;;;;;3.30;3.00;;;17.20;25.50;;;;;;5119428;28;20213;-62
2021/12/22 00:23:46;;;;;;;3.85;3.45;;;17.20;25.60;;;;;;5119752;28;20267;-62
2021/12/22 00:26:14;;;;;;;3.47;3.28;;;17.10;25.50;;;;;;5119907;28;20217;-62
2021/12/22 00:28:42;;;;;;;3.67;3.38;;;17.20;25.60;;;;;;5119843;28;20896;-62
2021/12/22 00:31:12;;;;;;;3.78;3.38;;;17.20;25.60;;;;;;5119705;28;20601;-62
2021/12/22 00:33:48;;;;;;;3.85;3.55;;;17.10;25.60;;;;;;5118174;28;20215;-63
2021/12/22 00:36:18;;;;;;;3.88;3.60;;;17.10;25.50;;;;;;5118879;28;20221;-62
2021/12/22 00:38:47;;;;;;;3.80;3.50;;;17.10;25.50;;;;;;5119207;28;20203;-62
2021/12/22 00:41:16;;;;;;;3.70;3.40;;;17.10;25.60;;;;;;5119457;28;20594;-62
2021/12/22 00:43:43;;;;;;;3.90;3.60;;;17.10;25.60;;;;;;5119998;28;20206;-62
2021/12/22 00:46:12;;;;;;;4.00;3.70;;;17.00;25.50;;;;;;5119191;28;20207;-62
2021/12/22 00:48:39;;;;;;;3.67;3.40;;;17.00;25.50;;;;;;5118592;28;20570;-62
2021/12/22 00:51:07;;;;;;;3.75;3.45;;;17.00;25.50;;;;;;5119835;28;20477;-62
2021/12/22 00:53:34;;;;;;;3.70;3.40;;;17.00;25.50;;;;;;5116857;28;20211;-62
2021/12/22 00:56:03;;;;;;;3.90;3.60;;;17.00;25.60;;;;;;5112350;28;20316;-62
2021/12/22 00:58:30;;;;;;;4.00;3.70;;;17.00;25.60;;;;;;5118392;28;20210;-62
2021/12/22 01:00:57;;;;;;;4.20;3.88;;;17.00;25.60;;;;;;5118538;28;20496;-62
2021/12/22 01:03:25;;;;;;;3.95;3.65;;;17.00;25.60;;;;;;5119061;28;20214;-62
2021/12/22 01:05:53;;;;;;;3.97;3.67;;;16.90;25.60;;;;;;5119428;28;20199;-62
2021/12/22 01:08:20;;;;;;;3.45;3.25;;;16.90;25.60;;;;;;5119027;28;20726;-62
2021/12/22 01:10:48;;;;;;;3.55;3.30;;;16.90;25.60;;;;;;5118801;28;20205;-62
2021/12/22 01:13:16;;;;;;;3.75;3.45;;;16.90;25.60;;;;;;5119080;28;20211;-62
2021/12/22 01:15:44;;;;;;;4.35;3.95;;;16.90;25.60;;;;;;5119086;28;20830;-62
2021/12/22 01:18:14;;;;;;;4.07;3.67;;;16.90;25.60;;;;;;5118597;28;20237;-62
2021/12/22 01:20:57;;;;;;;4.50;4.10;;;16.90;25.60;;;;;;5118779;28;20254;-62
2021/12/22 01:23:24;;;;;;;4.13;3.83;;;16.90;25.60;;;;;;5118899;28;20641;-62
2021/12/22 01:25:52;;;;;;;4.40;4.10;;;16.90;25.60;;;;;;5118449;28;20195;-62
2021/12/22 01:28:24;;;;;;;4.65;4.25;;;16.90;25.60;;;;;;5118334;28;20199;-62
2021/12/22 01:30:52;;;;;;;4.13;3.83;;;16.90;25.70;;;;;;5118302;28;20218;-62
2021/12/22 01:33:20;;;;;;;4.35;4.03;;;16.80;25.60;;;;;;5118878;28;20570;-62
2021/12/22 01:35:47;;;;;;;4.75;4.35;;;16.80;25.60;;;;;;5118422;28;20223;-62
2021/12/22 01:38:15;;;;;;;4.15;3.85;;;16.80;25.60;;;;;;5118532;28;20207;-62
2021/12/22 01:40:45;;;;;;;4.15;3.85;;;16.80;25.60;;;;;;5118576;28;20246;-65
2021/12/22 01:43:14;;;;;;;4.28;3.97;;;16.80;25.60;;;;;;5118217;28;20225;-62
2021/12/22 01:51:37;;;;;;;4.10;3.80;;;16.70;25.60;;;;;;5117939;28;20227;-62
2021/12/22 01:54:08;;;;;;;4.13;3.83;;;16.70;25.60;;;;;;5118236;28;20229;-62
2021/12/22 01:56:35;;;;;;;4.40;4.00;;;16.70;25.60;;;;;;5118226;28;20241;-63
2021/12/22 01:59:06;;;;;;;4.20;3.90;;;16.70;25.60;;;;;;5118549;28;20592;-62
2021/12/22 02:01:36;;;;;;;4.63;4.22;;;16.70;25.60;;;;;;5118351;28;20210;-62
2021/12/22 02:04:05;;;;;;;4.60;4.20;;;16.70;25.60;;;;;;5118252;28;20207;-62
2021/12/22 02:06:32;;;;;;;4.45;4.15;;;16.70;25.60;;;;;;5117666;28;20215;-62
2021/12/22 02:08:59;;;;;;;4.30;3.92;;;16.70;25.70;;;;;;5118033;28;20211;-62
2021/12/22 02:11:27;;;;;;;4.22;3.92;;;16.70;25.60;;;;;;5118092;28;20213;-62
2021/12/22 02:13:59;;;;;;;4.03;3.63;;;16.70;25.60;;;;;;5118023;28;20206;-62
2021/12/22 02:16:30;;;;;;;4.05;3.75;;;16.60;25.60;;;;;;5118360;28;20239;-62
2021/12/22 02:19:00;;;;;;;4.25;3.95;;;16.60;25.60;;;;;;5117188;28;20211;-62
2021/12/22 02:21:33;;;;;;;4.70;4.30;;;16.60;25.60;;;;;;5117819;28;20211;-62
2021/12/22 02:24:00;;;;;;;4.30;3.97;;;16.60;25.60;;;;;;5116857;28;20243;-62
2021/12/22 02:26:34;;;;;;;4.20;3.88;;;16.60;25.60;;;;;;5117345;28;20207;-62
2021/12/22 02:29:05;;;;;;;4.68;4.28;;;16.60;25.60;;;;;;5117173;28;20217;-62
2021/12/22 02:31:38;;;;;;;4.00;3.70;;;16.50;25.60;;;;;;5117036;28;20207;-62
2021/12/22 02:34:11;;;;;;;4.47;4.07;;;16.50;25.60;;;;;;5117347;28;20203;-62
2021/12/22 02:36:40;;;;;;;4.03;3.72;;;16.50;25.60;;;;;;5117759;28;20311;-62
2021/12/22 02:39:08;;;;;;;4.25;3.95;;;16.50;25.60;;;;;;5117447;28;20257;-61
2021/12/22 02:41:38;;;;;;;4.40;4.10;;;16.50;25.60;;;;;;5117518;28;20210;-62
2021/12/22 02:44:09;;;;;;;4.35;3.95;;;16.50;25.60;;;;;;5117707;28;20254;-62
2021/12/22 02:46:38;;;;;;;4.03;3.72;;;16.50;25.60;;;;;;5116764;28;20282;-62
2021/12/22 02:49:07;;;;;;;4.32;4.00;;;16.50;25.60;;;;;;5116969;28;20485;-62
2021/12/22 02:51:34;;;;;;;4.18;3.88;;;16.40;25.50;;;;;;5116933;28;20586;-62
2021/12/22 02:54:09;;;;;;;4.68;4.28;;;16.50;25.60;;;;;;5117286;28;20226;-62
2021/12/22 02:56:50;;;;;;;3.95;3.65;;;16.40;25.60;;;;;;5117038;28;20231;-62
2021/12/22 02:59:37;;;;;;;4.13;3.83;;;16.40;25.60;;;;;;5117397;28;20194;-62
2021/12/22 03:04:54;;;;;;;4.13;3.72;;;16.40;25.60;;;;;;5116286;28;20186;-62
2021/12/22 03:07:24;;;;;;;4.25;3.95;;;16.40;25.60;;;;;;5116933;28;20214;-62
2021/12/22 03:10:03;;;;;;;4.70;4.30;;;16.40;25.60;;;;;;5116904;28;20209;-62
2021/12/22 03:12:34;;;;;;;4.40;4.10;;;16.40;25.60;;;;;;5116494;28;20226;-62
2021/12/22 03:15:03;;;;;;;4.50;4.15;;;16.30;25.50;;;;;;5116905;28;20234;-62
2021/12/22 03:17:30;;;;;;;4.15;3.85;;;16.30;25.50;;;;;;5116867;28;20199;-62
2021/12/22 03:19:57;;;;;;;4.20;3.90;;;16.30;25.50;;;;;;5116709;28;20210;-62
2021/12/22 03:22:24;;;;;;;4.53;4.13;;;16.30;25.60;;;;;;5116627;28;20236;-62
2021/12/22 03:24:52;;;;;;;4.30;3.90;;;16.30;25.60;;;;;;5116589;28;20211;-62
2021/12/22 03:27:22;;;;;;;4.45;4.15;;;16.30;25.60;;;;;;5116704;28;20207;-62
2021/12/22 03:29:49;;;;;;;4.40;4.10;;;16.20;25.60;;;;;;5116261;28;20215;-62
2021/12/22 03:32:16;;;;;;;4.60;4.20;;;16.30;25.60;;;;;;5116503;28;20652;-61
2021/12/22 03:34:43;;;;;;;4.25;3.95;;;16.30;25.60;;;;;;5115538;28;20226;-62
2021/12/22 03:37:12;;;;;;;4.90;4.50;;;16.20;25.60;;;;;;5116264;28;20503;-62
2021/12/22 03:39:40;;;;;;;4.40;4.00;;;16.20;25.60;;;;;;5113752;28;20205;-62
2021/12/22 03:42:09;;;;;;;4.55;4.18;;;16.20;25.50;;;;;;5110232;28;20216;-62
2021/12/22 03:44:37;;;;;;;4.38;4.03;;;16.20;25.60;;;;;;5116326;28;20629;-62
2021/12/22 03:47:05;;;;;;;4.78;4.38;;;16.20;25.60;;;;;;5116137;28;20203;-62
2021/12/22 03:49:33;;;;;;;4.28;3.97;;;16.20;25.60;;;;;;5116294;28;20621;-62
2021/12/22 03:52:01;;;;;;;4.32;4.00;;;16.20;26.20;;;;;;5116143;28;20225;-62
2021/12/22 03:54:28;;;;;;;4.82;4.43;;;16.20;25.60;;;;;;5107763;28;20215;-62
2021/12/22 03:56:55;;;;;;;4.25;3.95;;;16.20;25.60;;;;;;5116112;28;20246;-62
2021/12/22 03:59:23;;;;;;;4.03;3.72;;;16.10;25.50;;;;;;5115972;28;20285;-62
2021/12/22 04:01:52;;;;;;;4.47;4.18;;;16.10;25.60;;;;;;5116352;28;20205;-62
2021/12/22 04:04:20;;;;;;;4.57;4.18;;;16.10;25.60;;;;;;5116309;28;20494;-62
2021/12/22 04:06:48;;;;;;;4.63;4.22;;;16.10;25.60;;;;;;5115893;28;20187;-61
2021/12/22 04:09:16;;;;;;;4.65;4.25;;;16.10;25.60;;;;;;5116475;28;20202;-62
2021/12/22 04:11:44;;;;;;;4.80;4.40;;;16.10;25.60;;;;;;5116062;28;20207;-62
2021/12/22 04:14:12;;;;;;;4.60;4.20;;;16.00;25.50;;;;;;5115610;28;20632;-62
2021/12/22 04:16:39;;;;;;;4.53;4.13;;;16.00;25.60;;;;;;5116029;28;20245;-62
2021/12/22 04:19:08;;;;;;;4.43;4.05;;;16.00;25.60;;;;;;5115592;28;20258;-62
2021/12/22 04:21:35;;;;;;;4.40;4.10;;;16.00;25.60;;;;;;5115921;28;20202;-62
2021/12/22 04:24:02;;;;;;;4.57;4.18;;;16.00;25.60;;;;;;5115840;28;20596;-62
2021/12/22 04:26:31;;;;;;;4.25;3.95;;;16.00;25.60;;;;;;5115466;28;20571;-62
2021/12/22 04:28:59;;;;;;;4.65;4.25;;;16.00;25.60;;;;;;5115769;28;20214;-62
2021/12/22 04:31:26;;;;;;;4.32;4.00;;;15.90;25.50;;;;;;5115763;28;20206;-62
2021/12/22 04:33:53;;;;;;;4.20;3.90;;;15.90;25.60;;;;;;5115019;28;20195;-62
2021/12/22 04:36:22;;;;;;;4.30;3.97;;;15.90;25.60;;;;;;5115847;28;20227;-62
2021/12/22 04:38:49;;;;;;;4.65;4.25;;;15.90;25.60;;;;;;5115530;28;20203;-62
2021/12/22 04:41:16;;;;;;;4.43;4.03;;;15.90;25.60;;;;;;5115043;28;20222;-62
2021/12/22 04:43:43;;;;;;;4.40;4.00;;;15.90;25.60;;;;;;5115463;28;20500;-62
2021/12/22 04:46:10;;;;;;;3.97;3.67;;;15.90;25.60;;;;;;5115485;28;20244;-62
2021/12/22 04:48:37;;;;;;;4.55;4.15;;;15.90;25.60;;;;;;5118876;28;20222;-62
2021/12/22 04:51:22;;;;;;;4.80;4.40;;;15.90;25.60;;;;;;5119731;28;20598;-62
2021/12/22 04:53:54;;;;;;;4.57;4.18;;;15.80;25.50;;;;;;5119338;28;20545;-62
2021/12/22 04:56:21;;;;;;;4.45;4.05;;;15.80;25.50;;;;;;5118903;28;20235;-62
2021/12/22 04:58:48;;;;;;;3.97;3.67;;;15.90;25.70;;;;;;5119034;28;20463;-62
2021/12/22 05:01:16;;;;;;;4.15;3.85;;;15.80;25.60;;;;;;5118723;28;20590;-62
2021/12/22 05:03:43;;;;;;;4.00;3.70;;;15.80;25.60;;;;;;5118459;28;20206;-62
2021/12/22 05:06:10;;;;;;;4.07;3.67;;;15.80;25.60;;;;;;5118705;28;20206;-62
2021/12/22 05:08:37;;;;;;;4.60;4.20;;;15.80;25.60;;;;;;5119237;28;20292;-61
2021/12/22 05:11:06;;;;;;;4.05;3.75;;;15.80;25.60;;;;;;5118998;28;20225;-62
2021/12/22 05:13:35;;;;;;;4.20;3.90;;;15.80;25.60;;;;;;5118884;28;20207;-62
2021/12/22 05:16:04;;;;;;;4.30;3.95;;;15.80;25.60;;;;;;5118386;28;20229;-62
2021/12/22 05:18:49;;;;;;;4.25;3.95;;;15.70;25.60;;;;;;5118844;28;20236;-62
2021/12/22 05:21:17;;;;;;;4.25;3.85;;;15.70;25.60;;;;;;5117563;28;20199;-62
2021/12/22 05:23:44;;;;;;;4.22;3.83;;;15.70;25.60;;;;;;5118511;28;20199;-62
2021/12/22 05:26:13;;;;;;;4.18;3.78;;;15.70;25.60;;;;;;5118575;28;20207;-61
2021/12/22 05:28:40;;;;;;;4.40;4.00;;;15.70;25.60;;;;;;5117939;28;20213;-62
2021/12/22 05:31:07;;;;;;;4.30;4.00;;;15.70;25.60;;;;;;5117618;28;20219;-62
2021/12/22 05:33:34;;;;;;;4.40;4.00;;;15.70;25.60;;;;;;5118490;28;20198;-62
2021/12/22 05:36:01;;;;;;;4.20;3.90;;;15.70;25.60;;;;;;5117292;28;20522;-62
2021/12/22 05:38:28;;;;;;;4.15;3.85;;;15.70;25.60;;;;;;5117672;28;20509;-62
2021/12/22 05:40:55;;;;;;;4.43;4.03;;;15.60;25.60;;;;;;5117671;28;20214;-62
2021/12/22 05:43:24;;;;;;;4.45;4.05;;;15.60;25.60;;;;;;5117541;28;20222;-62
2021/12/22 05:45:51;;;;;;;3.60;3.30;;;15.60;25.60;;;;;;5116754;28;20210;-62
2021/12/22 05:48:20;;;;;;;3.97;3.67;;;15.60;25.60;;;;;;5117669;28;20503;-62
2021/12/22 05:50:50;;;;;;;4.03;3.72;;;15.60;25.60;;;;;;5116902;28;20202;-62
2021/12/22 05:53:17;;;;;;;4.00;3.67;;;15.60;25.60;;;;;;5116978;28;20218;-62
2021/12/22 05:55:45;;;;;;;4.20;3.85;;;15.60;25.60;;;;;;5116373;28;20227;-62
2021/12/22 05:58:12;;;;;;;4.00;3.70;;;15.60;25.70;;;;;;5115654;28;20203;-62
2021/12/22 06:00:41;;;;;;;4.03;3.72;;;15.50;25.60;;;;;;5116704;28;20287;-62
2021/12/22 06:03:10;;;;;;;3.80;3.50;;;15.60;25.70;;;;;;5117221;28;20265;-62
2021/12/22 06:05:38;;;;;;;4.53;4.13;;;15.50;25.60;;;;;;5116172;28;20222;-62
2021/12/22 06:08:05;;;;;;;3.97;3.67;;;15.50;25.60;;;;;;5116363;28;20209;-62
2021/12/22 06:10:34;;;;;;;4.15;3.83;;;15.50;25.60;;;;;;5117239;28;20203;-61
2021/12/22 06:13:02;;;;;;;3.95;3.55;;;15.50;25.60;;;;;;5117025;28;20679;-62
2021/12/22 06:15:29;;;;;;;3.83;3.53;;;15.50;25.70;;;;;;5116550;28;20441;-61
2021/12/22 06:17:59;;;;;;;3.92;3.63;;;15.50;25.70;;;;;;5116338;28;20487;-62
2021/12/22 06:20:27;;;;;;;4.32;4.03;;;15.40;25.60;;;;;;5116094;28;20203;-62
2021/12/22 06:22:54;;;;;;;4.40;4.00;;;15.40;25.60;;;;;;5115585;28;20203;-62
2021/12/22 06:25:22;;;;;;;3.97;3.67;;;15.40;25.60;;;;;;5115222;28;20199;-62
2021/12/22 06:27:49;;;;;;;4.47;4.07;;;15.40;25.60;;;;;;5116491;28;20199;-62
2021/12/22 06:30:18;;;;;;;4.57;4.20;;;15.40;25.70;;;;;;5115544;28;20202;-62
2021/12/22 06:32:46;;;;;;;4.10;3.80;;;15.40;25.70;;;;;;5115461;28;20210;-62
2021/12/22 06:35:14;;;;;;;4.22;3.83;;;15.40;25.60;;;;;;5116817;28;20202;-61
2021/12/22 06:37:43;;;;;;;4.50;4.10;;;15.40;25.60;;;;;;5112901;27;20233;-62
2021/12/22 06:40:12;;;;;;;4.28;3.97;;;15.40;25.70;;;;;;5123023;27;20207;-62
2021/12/22 06:42:39;;;;;;;4.57;4.18;;;15.40;25.70;;;;;;5115842;28;20207;-62
2021/12/22 06:45:08;;;;;;;4.43;4.03;;;15.30;25.60;;;;;;5115530;28;20203;-62
2021/12/22 06:47:35;;;;;;;4.35;3.95;;;15.30;25.60;;;;;;5114857;28;20218;-62
2021/12/22 06:50:03;;;;;;;4.15;3.85;;;15.30;25.60;;;;;;5115081;28;20229;-62
2021/12/22 06:52:33;;;;;;;3.97;3.63;;;15.30;25.70;;;;;;5115048;28;20574;-62
2021/12/22 06:55:00;;;;;;;4.20;3.90;;;15.30;25.70;;;;;;5115185;28;20199;-62
2021/12/22 06:57:29;;;;;;;4.32;3.95;;;15.30;25.70;;;;;;5115161;28;20234;-62
2021/12/22 06:59:58;;;;;;;4.35;3.95;;;15.30;25.70;;;;;;5115724;28;20287;-61
2021/12/22 07:02:26;;;;;;;4.53;4.13;;;15.30;25.80;;;;;;5115513;28;20574;-62
2021/12/22 07:04:53;;;;;;;4.13;3.80;;;15.30;25.70;;;;;;5115686;28;20217;-61
2021/12/22 07:07:21;;;;;;;4.22;3.83;;;15.20;25.60;;;;;;5115776;28;20210;-62
2021/12/22 07:09:49;;;;;;;4.35;3.95;;;15.20;25.60;;;;;;5115201;28;20207;-61
2021/12/22 07:12:16;;;;;;;4.22;3.92;;;15.20;25.70;;;;;;5115161;28;20230;-61
2021/12/22 07:14:43;;;;;;;4.55;4.15;;;15.20;25.70;;;;;;5115462;28;20218;-62
2021/12/22 07:17:11;;;;;;;4.00;3.70;;;15.20;25.80;;;;;;5114801;28;20827;-62
2021/12/22 07:19:38;;;;;;;3.90;3.60;;;15.20;25.70;;;;;;5114535;28;20218;-61
2021/12/22 07:22:06;;;;;;;4.47;4.07;;;15.20;25.80;;;;;;5114975;28;20207;-62
2021/12/22 07:24:33;;;;;;;4.65;4.25;;;15.20;25.70;;;;;;5115444;28;20207;-62
2021/12/22 07:27:02;;;;;;;4.53;4.13;;;15.20;25.70;;;;;;5114790;28;20203;-62
2021/12/22 07:29:29;;;;;;;4.50;4.10;;;15.10;25.70;;;;;;5114459;28;20206;-62
2021/12/22 07:31:56;;;;;;;4.57;4.18;;;15.10;25.70;;;;;;5115021;28;20621;-62
2021/12/22 07:34:29;;;;;;;4.45;4.05;;;15.10;25.70;;;;;;5114874;28;20214;-63
2021/12/22 07:37:01;;;;;;;4.43;3.97;;;15.10;25.70;;;;;;5114324;28;20226;-63
2021/12/22 07:39:28;;;;;;;4.50;4.10;;;15.10;25.70;;;;;;5114298;28;20210;-62
2021/12/22 07:41:56;;;;;;;4.60;4.20;;;15.10;25.70;;;;;;5113852;28;20211;-63
2021/12/22 07:44:24;;;;;;;4.05;3.75;;;15.10;26.40;;;;;;5114623;28;20222;-62
2021/12/22 07:46:52;;;;;;;4.05;3.75;;;15.10;25.70;;;;;;5110561;28;20579;-62
2021/12/22 07:49:19;;;;;;;4.78;4.38;;;15.10;25.70;;;;;;5110924;28;20277;-63
2021/12/22 07:51:46;;;;;;;3.92;3.63;;;15.00;25.70;;;;;;5115499;28;20648;-63
2021/12/22 07:54:13;;;;;;;4.45;4.05;;;15.00;25.70;;;;;;5114724;28;20198;-63
2021/12/22 07:56:40;;;;;;;4.10;3.80;;;15.00;25.70;;;;;;5114423;28;20234;-63
2021/12/22 07:59:12;;;;;;;4.43;4.05;;;15.00;25.60;;;;;;5099830;28;20714;-62
2021/12/22 08:01:44;;;;;;;3.90;3.60;;;15.00;25.70;;;;;;5094195;28;20595;-63
2021/12/22 08:04:12;;;;;;;4.32;3.92;;;15.00;25.70;;;;;;5094388;28;20203;-62
2021/12/22 08:06:39;;;;;;;4.32;3.95;;;15.00;25.70;;;;;;5094281;28;20215;-62
2021/12/22 08:09:06;;;;;;;4.28;3.92;;;15.00;25.80;;;;;;5093995;28;20200;-63
2021/12/22 08:11:34;;;;;;;5.05;3.88;;;15.00;26.10;;;;;;5094430;28;20216;-62
2021/12/22 08:14:01;;;;;;;5.30;3.72;;;15.10;26.20;;;;;;5097321;28;20199;-62
2021/12/22 08:16:28;;;;;;;4.70;4.30;;;15.00;26.10;;;;;;5111280;28;20223;-63
2021/12/22 08:18:56;;;;;;;4.68;4.22;;;15.00;26.00;;;;;;5113838;28;20203;-63
2021/12/22 08:21:24;;;;;;;4.43;4.03;;;15.00;26.00;;;;;;5114109;28;20549;-62
2021/12/22 08:23:51;;;;;;;4.50;4.10;;;15.00;25.90;;;;;;5118262;28;20207;-63
2021/12/22 08:26:18;;;;;;;4.32;3.92;;;14.90;25.90;;;;;;5117707;28;20198;-63
2021/12/22 08:28:48;;;;;;;4.07;3.78;;;14.90;25.90;;;;;;5118316;28;20285;-63
2021/12/22 08:31:16;;;;;;;4.20;3.75;;;15.00;25.90;;;;;;5112358;28;20203;-63
2021/12/22 08:33:46;;;;;;;4.63;4.22;;;15.00;25.90;;;;;;5096500;28;20211;-63
2021/12/22 08:39:05;;;;;;;5.00;4.35;;;14.90;25.80;;;;;;5096914;28;20202;-63
2021/12/22 08:41:34;;;;;;;4.40;3.92;;;15.00;26.00;;;;;;5106155;28;20646;-62
2021/12/22 08:44:05;;;;;;;5.40;4.10;;;14.90;26.80;;;;;;5112086;28;20215;-63
2021/12/22 08:46:34;;;;;;;4.63;4.15;;;15.00;26.40;;;;;;5097380;28;20211;-63
2021/12/22 08:49:01;;;;;;;5.28;3.95;;;15.00;26.50;;;;;;5097744;28;20214;-63
2021/12/22 08:51:30;;;;;;;4.43;4.03;;;15.00;26.60;;;;;;5097251;28;20326;-63
2021/12/22 08:53:57;;;;;;;4.50;4.10;;;15.00;26.70;;;;;;5096886;28;20211;-63
2021/12/22 08:56:24;;;;;;;4.13;3.78;;;15.00;26.70;;;;;;5096626;28;20330;-63
2021/12/22 08:58:52;;;;;;;4.30;3.90;;;15.00;26.70;;;;;;5094499;28;20233;-63
2021/12/22 09:01:19;;;;;;;4.70;3.72;;;15.00;26.60;;;;;;5103189;28;20281;-63
2021/12/22 09:03:46;;;;;;;4.70;4.28;;;14.90;26.30;;;;;;5096015;28;20199;-63
2021/12/22 09:06:14;;;;;;;5.18;4.07;;;15.00;26.40;;;;;;5096744;28;20230;-63
2021/12/22 09:08:42;;;;;;;4.10;3.80;;;14.90;26.30;;;;;;5101434;28;20210;-62
2021/12/22 09:11:11;;;;;;;5.00;4.50;;;14.90;26.30;;;;;;5116186;28;20210;-62
2021/12/22 09:13:39;;;;;;;22.98;20.65;;;14.90;26.20;;;;;;5116953;28;20211;-63
2021/12/22 09:16:09;;;;;;;18.65;16.70;;;14.90;26.20;;;;;;5116771;28;20579;-63
2021/12/22 09:18:37;;;;;;;18.58;16.70;;;14.90;26.70;;;;;;5116805;28;20209;-63
2021/12/22 09:21:05;;;;;;;16.13;14.60;;;14.90;26.10;;;;;;5117160;28;20203;-63
2021/12/22 09:23:32;;;;;;;15.27;13.75;;;14.90;26.10;;;;;;5117498;28;20592;-63
2021/12/22 09:26:01;;;;;;;14.50;12.95;;;14.90;26.20;;;;;;5116820;28;20206;-63
2021/12/22 09:28:28;;;;;;;13.90;12.60;;;14.90;26.30;;;;;;5116918;28;20192;-63
2021/12/22 09:30:55;;;;;;;13.05;11.75;;;14.90;26.30;;;;;;5116524;28;20474;-63
2021/12/22 09:33:23;;;;;;;13.85;12.35;;;14.90;26.30;;;;;;5115673;28;20210;-63
2021/12/22 09:35:52;;;;;;;12.68;10.57;;;14.90;26.40;;;;;;5106892;28;20207;-63
2021/12/22 09:38:19;;;;;;;11.10;10.02;;;15.00;26.50;;;;;;5115739;28;20308;-63
2021/12/22 09:40:47;;;;;;;10.93;9.85;;;15.00;26.50;;;;;;5116140;28;20221;-63
2021/12/22 09:43:16;;;;;;;10.40;9.40;;;15.00;26.50;;;;;;5115419;28;20202;-63
2021/12/22 09:45:48;;;;;;;10.75;8.75;;;15.00;26.60;;;;;;5115679;28;20622;-63
2021/12/22 09:48:29;;;;;;;9.05;8.15;;;15.00;26.60;;;;;;5114770;28;20191;-63
2021/12/22 09:52:16;;;;;;;9.48;8.48;;;15.10;26.70;;;;;;5114505;28;20593;-63
2021/12/22 09:53:46;;;;;;;9.25;8.18;;;15.10;26.60;;;;;;5112116;28;20636;-63
2021/12/22 09:56:16;;;;;;;9.38;8.25;;;15.10;26.60;;;;;;5113007;28;20510;-63
2021/12/22 09:58:47;;;;;;;9.10;7.68;;;15.10;26.60;;;;;;5113925;28;20203;-63
2021/12/22 10:01:15;;;;;;;8.95;7.30;;;15.10;26.60;;;;;;5113763;28;20574;-63
2021/12/22 10:03:42;;;;;;;7.90;7.20;;;15.20;26.60;;;;;;5113033;28;20210;-63
2021/12/22 10:06:09;;;;;;;8.48;7.18;;;15.20;26.60;;;;;;5115213;28;20780;-63
2021/12/22 10:08:40;;;;;;;8.50;7.68;;;15.20;26.50;;;;;;5115364;28;20237;-63
2021/12/22 10:11:10;;;;;;;7.00;6.30;;;15.20;26.50;;;;;;5115471;28;20294;-63
2021/12/22 10:13:39;;;;;;;7.05;6.43;;;15.20;26.50;;;;;;5114712;28;20207;-63
2021/12/22 10:16:13;;;;;;;7.22;6.53;;;15.20;26.50;;;;;;5115791;28;20211;-63
2021/12/22 10:18:40;;;;;;;6.70;6.10;;;15.20;26.50;;;;;;5116123;28;20488;-63
2021/12/22 10:21:13;;;;;;;7.50;6.00;;;15.20;26.50;;;;;;5115589;28;20215;-64
2021/12/22 10:23:44;;;;;;;9.45;5.90;;;15.20;26.50;;;;;;5114976;28;20209;-63
2021/12/22 10:26:11;;;;;;;6.60;6.00;;;15.20;26.50;;;;;;5114789;28;20198;-63
2021/12/22 10:28:54;;;;;;;6.10;5.30;;;15.20;26.40;;;;;;5114945;28;20198;-63
2021/12/22 10:31:27;;;;;;;6.28;5.68;;;15.20;26.40;;;;;;5113932;28;20199;-63
2021/12/22 10:33:54;;;;;;;6.20;5.60;;;15.20;26.30;;;;;;5114867;28;20214;-63
2021/12/22 10:36:23;;;;;;;6.03;5.43;;;15.20;26.30;;;;;;5115143;28;20211;-63
2021/12/22 10:38:53;;;;;;;7.72;6.88;;;15.20;26.30;;;;;;5113185;28;20237;-63
2021/12/22 10:41:27;;;;;;;8.20;7.40;;;15.20;26.30;;;;;;5112535;28;20199;-63
2021/12/22 10:43:54;;;;;;;8.63;7.72;;;15.10;26.20;;;;;;5115001;28;20218;-63
2021/12/22 10:46:28;;;;;;;8.18;6.80;;;15.10;26.20;;;;;;5114809;28;20574;-63
2021/12/22 10:49:17;;;;;;;8.50;7.60;;;15.10;26.20;;;;;;5114745;28;20206;-63
2021/12/22 10:51:55;;;;;;;8.95;7.28;;;15.10;26.20;;;;;;5114674;28;20566;-63
2021/12/22 10:54:31;;;;;;;8.70;6.70;;;15.10;26.20;;;;;;5114833;28;20478;-63
2021/12/22 10:57:00;;;;;;;8.18;6.43;;;15.10;26.20;;;;;;5114000;28;20244;-63
2021/12/22 10:59:27;;;;;;;8.60;6.72;;;15.20;26.30;;;;;;5113947;28;20203;-63
2021/12/22 11:02:07;;;;;;;8.30;6.75;;;15.10;26.20;;;;;;5114913;28;20594;-63
2021/12/22 11:04:37;;;;;;;8.07;6.60;;;15.10;26.20;;;;;;5114016;28;20297;-63
2021/12/22 11:07:12;;;;;;;7.55;5.80;;;15.20;26.20;;;;;;5114595;28;20435;-63
2021/12/22 11:09:39;;;;;;;6.35;5.70;;;15.20;26.20;;;;;;5114139;28;20194;-63
2021/12/22 11:12:07;;;;;;;10.90;6.05;;;15.20;26.20;;;;;;5113759;28;20211;-63
2021/12/22 11:14:38;;;;;;;6.25;5.63;;;15.20;26.20;;;;;;5114371;28;20203;-62
2021/12/22 11:17:09;;;;;;;6.53;5.93;;;15.20;26.10;;;;;;5113052;28;20671;-63
2021/12/22 11:19:38;;;;;;;7.60;5.70;;;15.20;26.10;;;;;;5111861;28;20198;-62
2021/12/22 11:22:11;;;;;;;6.32;5.63;;;15.20;26.10;;;;;;5111515;28;20199;-63
2021/12/22 11:24:44;;;;;;;6.32;5.72;;;15.20;26.10;;;;;;5113039;28;20574;-63
2021/12/22 11:27:18;;;;;;;6.40;5.28;;;15.20;26.10;;;;;;5113232;28;20285;-63
2021/12/22 11:29:48;;;;;;;5.60;5.10;;;15.10;26.00;;;;;;5109139;27;20502;-62
2021/12/22 11:32:17;;;;;;;6.50;5.57;;;15.20;26.10;;;;;;5118799;27;20207;-62
2021/12/22 11:34:49;;;;;;;6.22;5.40;;;15.10;26.00;;;;;;5110355;28;20280;-63
2021/12/22 11:37:17;;;;;;;5.20;4.70;;;15.10;26.00;;;;;;5110591;28;20222;-64
2021/12/22 11:39:44;;;;;;;5.55;4.93;;;15.10;26.00;;;;;;5110446;28;20240;-63
2021/12/22 11:42:13;;;;;;;5.72;5.00;;;15.10;25.90;;;;;;5109967;28;20203;-62
2021/12/22 11:44:41;;;;;;;5.72;4.90;;;15.10;25.90;;;;;;5110472;28;20207;-62
2021/12/22 11:47:11;;;;;;;5.82;4.60;;;15.10;26.50;;;;;;5110474;28;20365;-63
2021/12/22 11:49:55;;;;;;;5.45;4.95;;;15.10;25.90;;;;;;5109981;28;20207;-62
2021/12/22 11:52:33;;;;;;;4.57;4.18;;;15.20;26.00;;;;;;5111165;28;20207;-62
2021/12/22 11:55:15;;;;;;;4.82;4.43;;;15.10;25.90;;;;;;5109299;28;20451;-62
2021/12/22 11:57:44;;;;;;;4.97;4.47;;;15.10;25.90;;;;;;5112204;28;20234;-63
2021/12/22 12:00:31;;;;;;;5.18;4.70;;;15.10;25.90;;;;;;5113891;28;20207;-63
2021/12/22 12:03:00;;;;;;;5.10;4.60;;;15.10;25.90;;;;;;5112059;28;20738;-63
2021/12/22 12:05:30;;;;;;;4.88;4.28;;;15.10;25.90;;;;;;5113086;28;20198;-63
2021/12/22 12:07:59;;;;;;;4.45;4.05;;;15.10;25.90;;;;;;5115255;28;20198;-62
2021/12/22 12:10:40;;;;;;;5.38;4.45;;;15.10;25.90;;;;;;5114520;28;20210;-64
2021/12/22 12:13:17;;;;;;;4.78;4.30;;;15.10;25.90;;;;;;5115299;28;20212;-63
2021/12/22 12:22:09;;;;;;;4.10;3.70;;;15.10;25.90;;;;;;5088141;28;20252;-62
2021/12/22 12:24:43;;;;;;;3.63;3.33;;;15.10;25.90;;;;;;5115597;28;20242;-62
2021/12/22 12:27:36;;;;;;;3.88;3.45;;;15.10;25.90;;;;;;5115865;28;20635;-62
2021/12/22 12:30:06;;;;;;;4.10;3.70;;;15.20;26.00;;;;;;5107824;28;20586;-62
2021/12/22 12:33:06;;;;;;;4.25;3.47;;;15.10;25.90;;;;;;5114457;28;20462;-62
2021/12/22 12:35:37;;;;;;;3.50;3.20;;;15.10;25.90;;;;;;5113114;28;20275;-63
2021/12/22 12:38:15;;;;;;;3.75;3.45;;;15.10;25.90;;;;;;5113650;28;20215;-63
2021/12/22 12:41:11;;;;;;;3.67;3.10;;;15.20;26.00;;;;;;5114240;28;20207;-62
2021/12/22 12:44:10;;;;;;;3.78;3.38;;;15.10;25.90;;;;;;5113935;28;20207;-64
2021/12/22 12:46:49;;;;;;;4.20;3.40;;;15.10;25.90;;;;;;5113606;28;20230;-62
2021/12/22 12:49:34;;;;;;;3.78;3.38;;;15.10;25.90;;;;;;5113553;28;20276;-62
2021/12/22 12:52:10;;;;;;;3.47;3.17;;;15.10;25.90;;;;;;5113172;28;20217;-62
2021/12/22 12:54:41;;;;;;;3.70;3.00;;;15.10;25.80;;;;;;5114267;28;20206;-62
2021/12/22 12:57:29;;;;;;;3.30;3.00;;;15.10;25.80;;;;;;5113941;28;20580;-62
2021/12/22 13:00:18;;;;;;;3.55;3.25;;;15.10;25.90;;;;;;5109835;28;20388;-63
2021/12/22 13:02:45;;;;;;;3.45;3.15;;;15.10;25.80;;;;;;5114427;28;20211;-62
2021/12/22 13:05:14;;;;;;;3.53;3.22;;;15.10;25.80;;;;;;5114375;28;20223;-62
2021/12/22 13:07:42;;;;;;;3.42;3.13;;;15.10;25.80;;;;;;5112742;28;20220;-62
2021/12/22 13:10:23;;;;;;;3.05;2.80;;;15.10;25.80;;;;;;5116435;28;20217;-62
2021/12/22 13:15:46;;;;;;;3.20;2.90;;;15.10;25.80;;;;;;5116673;28;20355;-63
2021/12/22 13:18:28;;;;;;;3.10;2.80;;;15.10;25.70;;;;;;5116592;28;20257;-62
2021/12/22 13:21:06;;;;;;;2.90;2.60;;;15.10;25.80;;;;;;5116035;28;20207;-63